Terminal Aerodrome Forecast
Issued by NWS Atlanta, GA

Home | Current Version | Previous Version | Text Only | Print | Product List | Glossary On
Versions: 1 2 3 4 5 6 7 8 9 10 11 12 13 14 15 16 17 18 19 20 21 22 23 24 25 26 27 28 29 30 31 32 33 34
134
FTAK31 PAJN 020200 AAA
TAFAHN
TAF AMD
PAHN 020200Z 0202/0224 06008KT 6SM -SHRA SCT015 BKN045 OVC060
      TEMPO 0202/0206 12010G20KT 3SM -RA FEW006 BKN015 OVC025
     FM020900 30008KT 2SM RA BR OVC008
     FM021600 08012G20KT 3SM -RA BR SCT008 OVC015
     FM022100 10010G18KT P6SM SCT015 OVC025
      AMD LTD TO CLD VIS AND WIND=

USA.gov is the U.S. government's official web portal to all federal, state and local government web resources and services.